Check out our new PWSWeather beta!
PWSweather.com
Personal Weather Stations
Station Observations
PICKERING
North Yorkshire, PickeringGB

North YorkshirePickeringGB

Lat: 54.2494, Lon: -0.7725

Elevation: 192

Station Type: Oregon Scientific WMR100

High Low Average
Temperature 74.7°F23.7°C 42.8°F6.0°C 55.2°F12.9°C
Dew Point 53.6°F12.0°C 35.6°F2.0°C 43.1°F6.2°C
Winds 10.8 mph 17.4 kmh Calm Calm 2.0 mph SE3.2 kmh SE
Wind Gusts 17.0 mph27.4 kmh -- 4.0 mph6.4 kmh
Humidity 78% 45% 64%
Pressure 30.09 in1019.0 mb 29.83 in1010.2 mb -
Precipitation 0.06 in1.5 mm - -
Hour Temp Dew Point Humidity Winds Wind Gusts Pressure Precip Precip Rate Daily Precip Total
12:00 AM 48.7°F9.3°C 41.0°F5.0°C 71% Calm Calm -- 29.83 in1010.2 mb 0.00 in0.0 mm 0.00 in0.0 mm 0.00 in0.0 mm
12:05 AM 48.6°F9.2°C 41.0°F5.0°C 71% Calm Calm -- 29.83 in1010.2 mb 0.00 in0.0 mm 0.00 in0.0 mm 0.00 in0.0 mm
12:10 AM 48.4°F9.1°C 39.2°F4.0°C 71% Calm Calm -- 29.83 in1010.2 mb 0.00 in0.0 mm 0.00 in0.0 mm 0.00 in0.0 mm
12:15 AM 48.2°F9.0°C 39.2°F4.0°C 71% Calm Calm -- 29.83 in1010.2 mb 0.00 in0.0 mm 0.00 in0.0 mm 0.00 in0.0 mm
12:20 AM 48.2°F9.0°C 39.2°F4.0°C 71% Calm Calm -- 29.83 in1010.2 mb 0.00 in0.0 mm 0.00 in0.0 mm 0.00 in0.0 mm
12:25 AM 48.0°F8.9°C 39.2°F4.0°C 71% Calm Calm -- 29.83 in1010.2 mb 0.00 in0.0 mm 0.00 in0.0 mm 0.00 in0.0 mm
12:30 AM 47.8°F8.8°C 39.2°F4.0°C 71% Calm Calm -- 29.83 in1010.2 mb 0.00 in0.0 mm 0.00 in0.0 mm 0.00 in0.0 mm
12:35 AM 47.7°F8.7°C 39.2°F4.0°C 71% Calm Calm -- 29.83 in1010.2 mb 0.00 in0.0 mm 0.00 in0.0 mm 0.00 in0.0 mm
12:40 AM 47.5°F8.6°C 39.2°F4.0°C 71% Calm Calm -- 29.83 in1010.2 mb 0.00 in0.0 mm 0.00 in0.0 mm 0.00 in0.0 mm
12:45 AM 47.1°F8.4°C 39.2°F4.0°C 71% Calm Calm -- 29.83 in1010.2 mb 0.00 in0.0 mm 0.00 in0.0 mm 0.00 in0.0 mm
12:50 AM 47.1°F8.4°C 39.2°F4.0°C 71% Calm Calm -- 29.83 in1010.2 mb 0.00 in0.0 mm 0.00 in0.0 mm 0.00 in0.0 mm
12:55 AM 46.9°F8.3°C 39.2°F4.0°C 71% Calm Calm -- 29.83 in1010.2 mb 0.00 in0.0 mm 0.00 in0.0 mm 0.00 in0.0 mm
01:00 AM 46.9°F8.3°C 39.2°F4.0°C 71% Calm Calm -- 29.83 in1010.2 mb 0.00 in0.0 mm 0.00 in0.0 mm 0.00 in0.0 mm
01:05 AM 46.8°F8.2°C 37.4°F3.0°C 71% Calm Calm -- 29.83 in1010.2 mb 0.00 in0.0 mm 0.00 in0.0 mm 0.00 in0.0 mm
01:10 AM 46.6°F8.1°C 37.4°F3.0°C 71% Calm Calm -- 29.83 in1010.2 mb 0.00 in0.0 mm 0.00 in0.0 mm 0.00 in0.0 mm
01:15 AM 46.6°F8.1°C 37.4°F3.0°C 71% Calm Calm -- 29.83 in1010.2 mb 0.00 in0.0 mm 0.00 in0.0 mm 0.00 in0.0 mm
01:20 AM 46.4°F8.0°C 39.2°F4.0°C 72% Calm Calm -- 29.83 in1010.2 mb 0.00 in0.0 mm 0.00 in0.0 mm 0.00 in0.0 mm
01:25 AM 46.4°F8.0°C 39.2°F4.0°C 72% Calm Calm -- 29.83 in1010.2 mb 0.00 in0.0 mm 0.00 in0.0 mm 0.00 in0.0 mm
01:30 AM 46.2°F7.9°C 37.4°F3.0°C 72% Calm Calm -- 29.83 in1010.2 mb 0.00 in0.0 mm 0.00 in0.0 mm 0.00 in0.0 mm
01:35 AM 46.0°F7.8°C 37.4°F3.0°C 72% Calm Calm -- 29.83 in1010.2 mb 0.00 in0.0 mm 0.00 in0.0 mm 0.00 in0.0 mm
01:40 AM 46.0°F7.8°C 37.4°F3.0°C 72% Calm Calm -- 29.83 in1010.2 mb 0.00 in0.0 mm 0.00 in0.0 mm 0.00 in0.0 mm
01:45 AM 45.7°F7.6°C 37.4°F3.0°C 72% Calm Calm -- 29.83 in1010.2 mb 0.00 in0.0 mm 0.00 in0.0 mm 0.00 in0.0 mm
01:50 AM 45.5°F7.5°C 37.4°F3.0°C 72% Calm Calm -- 29.83 in1010.2 mb 0.00 in0.0 mm 0.00 in0.0 mm 0.00 in0.0 mm
01:55 AM 45.7°F7.6°C 37.4°F3.0°C 72% Calm Calm -- 29.83 in1010.2 mb 0.00 in0.0 mm 0.00 in0.0 mm 0.00 in0.0 mm
02:00 AM 45.7°F7.6°C 37.4°F3.0°C 72% Calm Calm -- 29.83 in1010.2 mb 0.00 in0.0 mm 0.00 in0.0 mm 0.00 in0.0 mm
02:05 AM 45.5°F7.5°C 37.4°F3.0°C 72% Calm Calm -- 29.83 in1010.2 mb 0.00 in0.0 mm 0.00 in0.0 mm 0.00 in0.0 mm
02:10 AM 45.3°F7.4°C 37.4°F3.0°C 72% 1.1 mph NNE1.8 kmh NNE 3.4 mph5.5 kmh 29.83 in1010.2 mb 0.00 in0.0 mm 0.00 in0.0 mm 0.00 in0.0 mm
02:15 AM 45.3°F7.4°C 37.4°F3.0°C 72% 2.1 mph NE3.4 kmh NE 3.4 mph5.5 kmh 29.83 in1010.2 mb 0.00 in0.0 mm 0.00 in0.0 mm 0.00 in0.0 mm
02:20 AM 45.0°F7.2°C 37.4°F3.0°C 72% 1.3 mph NE2.1 kmh NE 2.9 mph4.7 kmh 29.83 in1010.2 mb 0.00 in0.0 mm 0.00 in0.0 mm 0.00 in0.0 mm
02:25 AM 45.0°F7.2°C 37.4°F3.0°C 72% 0.3 mph NNE0.5 kmh NNE 1.6 mph2.6 kmh 29.83 in1010.2 mb 0.00 in0.0 mm 0.00 in0.0 mm 0.00 in0.0 mm
02:30 AM 44.6°F7.0°C 37.4°F3.0°C 72% 0.6 mph NNE1.0 kmh NNE 1.6 mph2.6 kmh 29.83 in1010.2 mb 0.00 in0.0 mm 0.00 in0.0 mm 0.00 in0.0 mm
02:35 AM 44.6°F7.0°C 37.4°F3.0°C 72% 0.4 mph NNE0.6 kmh NNE 1.1 mph1.8 kmh 29.83 in1010.2 mb 0.00 in0.0 mm 0.00 in0.0 mm 0.00 in0.0 mm
02:40 AM 44.6°F7.0°C 37.4°F3.0°C 72% Calm Calm -- 29.83 in1010.2 mb 0.00 in0.0 mm 0.00 in0.0 mm 0.00 in0.0 mm
02:45 AM 44.4°F6.9°C 37.4°F3.0°C 72% Calm Calm -- 29.83 in1010.2 mb 0.00 in0.0 mm 0.00 in0.0 mm 0.00 in0.0 mm
02:50 AM 44.2°F6.8°C 35.6°F2.0°C 72% Calm Calm -- 29.83 in1010.2 mb 0.00 in0.0 mm 0.00 in0.0 mm 0.00 in0.0 mm
02:55 AM 44.2°F6.8°C 35.6°F2.0°C 72% Calm Calm -- 29.83 in1010.2 mb 0.00 in0.0 mm 0.00 in0.0 mm 0.00 in0.0 mm
03:00 AM 44.2°F6.8°C 35.6°F2.0°C 73% Calm Calm -- 29.83 in1010.2 mb 0.00 in0.0 mm 0.00 in0.0 mm 0.00 in0.0 mm
03:05 AM 44.2°F6.8°C 35.6°F2.0°C 73% Calm Calm -- 29.83 in1010.2 mb 0.00 in0.0 mm 0.00 in0.0 mm 0.00 in0.0 mm
03:10 AM 44.1°F6.7°C 35.6°F2.0°C 73% Calm Calm -- 29.83 in1010.2 mb 0.00 in0.0 mm 0.00 in0.0 mm 0.00 in0.0 mm
03:15 AM 44.1°F6.7°C 35.6°F2.0°C 73% Calm Calm -- 29.83 in1010.2 mb 0.00 in0.0 mm 0.00 in0.0 mm 0.00 in0.0 mm
03:20 AM 43.7°F6.5°C 35.6°F2.0°C 73% Calm Calm -- 29.83 in1010.2 mb 0.00 in0.0 mm 0.00 in0.0 mm 0.00 in0.0 mm
03:25 AM 43.7°F6.5°C 35.6°F2.0°C 73% Calm Calm -- 29.83 in1010.2 mb 0.00 in0.0 mm 0.00 in0.0 mm 0.00 in0.0 mm
03:30 AM 43.7°F6.5°C 35.6°F2.0°C 73% Calm Calm -- 29.83 in1010.2 mb 0.00 in0.0 mm 0.00 in0.0 mm 0.00 in0.0 mm
03:35 AM 43.7°F6.5°C 35.6°F2.0°C 73% Calm Calm -- 29.83 in1010.2 mb 0.00 in0.0 mm 0.00 in0.0 mm 0.00 in0.0 mm
03:40 AM 43.7°F6.5°C 35.6°F2.0°C 73% Calm Calm -- 29.83 in1010.2 mb 0.00 in0.0 mm 0.00 in0.0 mm 0.00 in0.0 mm
03:45 AM 43.7°F6.5°C 35.6°F2.0°C 73% Calm Calm -- 29.83 in1010.2 mb 0.00 in0.0 mm 0.00 in0.0 mm 0.00 in0.0 mm
03:50 AM 43.7°F6.5°C 37.4°F3.0°C 74% Calm Calm -- 29.83 in1010.2 mb 0.00 in0.0 mm 0.00 in0.0 mm 0.00 in0.0 mm
03:55 AM 43.7°F6.5°C 37.4°F3.0°C 74% Calm Calm -- 29.83 in1010.2 mb 0.00 in0.0 mm 0.00 in0.0 mm 0.00 in0.0 mm
04:00 AM 43.5°F6.4°C 35.6°F2.0°C 74% Calm Calm -- 29.83 in1010.2 mb 0.00 in0.0 mm 0.00 in0.0 mm 0.00 in0.0 mm
04:05 AM 43.5°F6.4°C 35.6°F2.0°C 74% Calm Calm -- 29.83 in1010.2 mb 0.00 in0.0 mm 0.00 in0.0 mm 0.00 in0.0 mm
04:10 AM 43.3°F6.3°C 35.6°F2.0°C 74% Calm Calm -- 29.83 in1010.2 mb 0.00 in0.0 mm 0.00 in0.0 mm 0.00 in0.0 mm
04:15 AM 43.3°F6.3°C 35.6°F2.0°C 74% Calm Calm -- 29.83 in1010.2 mb 0.00 in0.0 mm 0.00 in0.0 mm 0.00 in0.0 mm
04:20 AM 43.2°F6.2°C 35.6°F2.0°C 74% Calm Calm -- 29.83 in1010.2 mb 0.00 in0.0 mm 0.00 in0.0 mm 0.00 in0.0 mm
04:25 AM 43.2°F6.2°C 35.6°F2.0°C 74% Calm Calm -- 29.83 in1010.2 mb 0.00 in0.0 mm 0.00 in0.0 mm 0.00 in0.0 mm
04:30 AM 43.2°F6.2°C 35.6°F2.0°C 74% Calm Calm -- 29.83 in1010.2 mb 0.00 in0.0 mm 0.00 in0.0 mm 0.00 in0.0 mm
04:35 AM 43.2°F6.2°C 35.6°F2.0°C 74% Calm Calm -- 29.83 in1010.2 mb 0.00 in0.0 mm 0.00 in0.0 mm 0.00 in0.0 mm
04:40 AM 43.0°F6.1°C 35.6°F2.0°C 74% Calm Calm -- 29.83 in1010.2 mb 0.00 in0.0 mm 0.00 in0.0 mm 0.00 in0.0 mm
04:45 AM 43.2°F6.2°C 35.6°F2.0°C 74% Calm Calm -- 29.83 in1010.2 mb 0.00 in0.0 mm 0.00 in0.0 mm 0.00 in0.0 mm
04:50 AM 43.0°F6.1°C 35.6°F2.0°C 74% Calm Calm -- 29.83 in1010.2 mb 0.00 in0.0 mm 0.00 in0.0 mm 0.00 in0.0 mm
04:55 AM 43.0°F6.1°C 35.6°F2.0°C 74% Calm Calm -- 29.83 in1010.2 mb 0.00 in0.0 mm 0.00 in0.0 mm 0.00 in0.0 mm
05:00 AM 43.0°F6.1°C 35.6°F2.0°C 74% Calm Calm -- 29.83 in1010.2 mb 0.00 in0.0 mm 0.00 in0.0 mm 0.00 in0.0 mm
05:05 AM 42.8°F6.0°C 35.6°F2.0°C 74% Calm Calm -- 29.83 in1010.2 mb 0.00 in0.0 mm 0.00 in0.0 mm 0.00 in0.0 mm
05:10 AM 42.8°F6.0°C 35.6°F2.0°C 75% Calm Calm -- 29.86 in1011.2 mb 0.00 in0.0 mm 0.00 in0.0 mm 0.00 in0.0 mm
05:15 AM 42.8°F6.0°C 35.6°F2.0°C 74% Calm Calm -- 29.86 in1011.2 mb 0.00 in0.0 mm 0.00 in0.0 mm 0.00 in0.0 mm
05:20 AM 43.0°F6.1°C 35.6°F2.0°C 75% Calm Calm -- 29.86 in1011.2 mb 0.00 in0.0 mm 0.00 in0.0 mm 0.00 in0.0 mm
05:25 AM 43.0°F6.1°C 35.6°F2.0°C 75% Calm Calm -- 29.86 in1011.2 mb 0.00 in0.0 mm 0.00 in0.0 mm 0.00 in0.0 mm
05:30 AM 43.0°F6.1°C 35.6°F2.0°C 75% Calm Calm -- 29.86 in1011.2 mb 0.00 in0.0 mm 0.00 in0.0 mm 0.00 in0.0 mm
05:35 AM 42.8°F6.0°C 35.6°F2.0°C 74% Calm Calm -- 29.86 in1011.2 mb 0.00 in0.0 mm 0.00 in0.0 mm 0.00 in0.0 mm
05:40 AM 42.8°F6.0°C 35.6°F2.0°C 75% Calm Calm -- 29.86 in1011.2 mb 0.00 in0.0 mm 0.00 in0.0 mm 0.00 in0.0 mm
05:45 AM 42.8°F6.0°C 35.6°F2.0°C 75% Calm Calm -- 29.86 in1011.2 mb 0.00 in0.0 mm 0.00 in0.0 mm 0.00 in0.0 mm
05:50 AM 42.8°F6.0°C 35.6°F2.0°C 75% Calm Calm -- 29.86 in1011.2 mb 0.00 in0.0 mm 0.00 in0.0 mm 0.00 in0.0 mm
05:55 AM 43.0°F6.1°C 35.6°F2.0°C 75% Calm Calm -- 29.86 in1011.2 mb 0.00 in0.0 mm 0.00 in0.0 mm 0.00 in0.0 mm
06:00 AM 43.0°F6.1°C 35.6°F2.0°C 75% Calm Calm -- 29.86 in1011.2 mb 0.00 in0.0 mm 0.00 in0.0 mm 0.00 in0.0 mm
06:05 AM 42.8°F6.0°C 35.6°F2.0°C 75% Calm Calm -- 29.86 in1011.2 mb 0.00 in0.0 mm 0.00 in0.0 mm 0.00 in0.0 mm
06:10 AM 43.0°F6.1°C 35.6°F2.0°C 75% Calm Calm -- 29.86 in1011.2 mb 0.00 in0.0 mm 0.00 in0.0 mm 0.00 in0.0 mm
06:15 AM 43.3°F6.3°C 37.4°F3.0°C 76% Calm Calm -- 29.86 in1011.2 mb 0.00 in0.0 mm 0.00 in0.0 mm 0.00 in0.0 mm
06:20 AM 43.5°F6.4°C 37.4°F3.0°C 76% Calm Calm -- 29.86 in1011.2 mb 0.00 in0.0 mm 0.00 in0.0 mm 0.00 in0.0 mm
06:25 AM 43.5°F6.4°C 37.4°F3.0°C 76% Calm Calm -- 29.86 in1011.2 mb 0.00 in0.0 mm 0.00 in0.0 mm 0.00 in0.0 mm
06:30 AM 43.7°F6.5°C 37.4°F3.0°C 77% Calm Calm -- 29.86 in1011.2 mb 0.00 in0.0 mm 0.00 in0.0 mm 0.00 in0.0 mm
06:35 AM 44.1°F6.7°C 37.4°F3.0°C 77% Calm Calm -- 29.86 in1011.2 mb 0.00 in0.0 mm 0.00 in0.0 mm 0.00 in0.0 mm
06:40 AM 44.2°F6.8°C 37.4°F3.0°C 77% Calm Calm -- 29.86 in1011.2 mb 0.00 in0.0 mm 0.00 in0.0 mm 0.00 in0.0 mm
06:45 AM 44.2°F6.8°C 37.4°F3.0°C 77% Calm Calm -- 29.86 in1011.2 mb 0.00 in0.0 mm 0.00 in0.0 mm 0.00 in0.0 mm
06:50 AM 45.5°F7.5°C 39.2°F4.0°C 78% Calm Calm -- 29.86 in1011.2 mb 0.00 in0.0 mm 0.00 in0.0 mm 0.00 in0.0 mm
06:55 AM 46.0°F7.8°C 39.2°F4.0°C 78% Calm Calm -- 29.86 in1011.2 mb 0.00 in0.0 mm 0.00 in0.0 mm 0.00 in0.0 mm
07:00 AM 46.8°F8.2°C 41.0°F5.0°C 78% Calm Calm -- 29.86 in1011.2 mb 0.00 in0.0 mm 0.00 in0.0 mm 0.00 in0.0 mm
07:05 AM 47.1°F8.4°C 41.0°F5.0°C 78% Calm Calm -- 29.86 in1011.2 mb 0.00 in0.0 mm 0.00 in0.0 mm 0.00 in0.0 mm
07:10 AM 47.7°F8.7°C 41.0°F5.0°C 78% Calm Calm -- 29.86 in1011.2 mb 0.00 in0.0 mm 0.00 in0.0 mm 0.00 in0.0 mm
07:15 AM 47.8°F8.8°C 42.8°F6.0°C 78% Calm Calm -- 29.86 in1011.2 mb 0.00 in0.0 mm 0.00 in0.0 mm 0.00 in0.0 mm
07:20 AM 48.2°F9.0°C 42.8°F6.0°C 78% Calm Calm -- 29.86 in1011.2 mb 0.00 in0.0 mm 0.00 in0.0 mm 0.00 in0.0 mm
07:25 AM 48.9°F9.4°C 42.8°F6.0°C 78% Calm Calm -- 29.89 in1012.2 mb 0.00 in0.0 mm 0.00 in0.0 mm 0.00 in0.0 mm
07:30 AM 49.6°F9.8°C 42.8°F6.0°C 78% Calm Calm -- 29.89 in1012.2 mb 0.00 in0.0 mm 0.00 in0.0 mm 0.00 in0.0 mm
07:35 AM 50.4°F10.2°C 44.6°F7.0°C 78% Calm Calm -- 29.89 in1012.2 mb 0.00 in0.0 mm 0.00 in0.0 mm 0.00 in0.0 mm
07:40 AM 51.3°F10.7°C 44.6°F7.0°C 78% Calm Calm -- 29.89 in1012.2 mb 0.00 in0.0 mm 0.00 in0.0 mm 0.00 in0.0 mm
07:45 AM 52.2°F11.2°C 46.4°F8.0°C 78% Calm Calm -- 29.89 in1012.2 mb 0.00 in0.0 mm 0.00 in0.0 mm 0.00 in0.0 mm
07:50 AM 52.7°F11.5°C 46.4°F8.0°C 77% Calm Calm -- 29.89 in1012.2 mb 0.00 in0.0 mm 0.00 in0.0 mm 0.00 in0.0 mm
07:55 AM 53.2°F11.8°C 46.4°F8.0°C 77% Calm Calm -- 29.89 in1012.2 mb 0.00 in0.0 mm 0.00 in0.0 mm 0.00 in0.0 mm
08:00 AM 53.6°F12.0°C 48.2°F9.0°C 77% Calm Calm -- 29.89 in1012.2 mb 0.00 in0.0 mm 0.00 in0.0 mm 0.00 in0.0 mm
08:05 AM 54.0°F12.2°C 48.2°F9.0°C 77% Calm Calm -- 29.89 in1012.2 mb 0.00 in0.0 mm 0.00 in0.0 mm 0.00 in0.0 mm
08:10 AM 54.1°F12.3°C 48.2°F9.0°C 76% Calm Calm -- 29.89 in1012.2 mb 0.00 in0.0 mm 0.00 in0.0 mm 0.00 in0.0 mm
08:15 AM 54.7°F12.6°C 48.2°F9.0°C 76% Calm Calm -- 29.89 in1012.2 mb 0.00 in0.0 mm 0.00 in0.0 mm 0.00 in0.0 mm
08:20 AM 55.6°F13.1°C 48.2°F9.0°C 76% Calm Calm -- 29.89 in1012.2 mb 0.00 in0.0 mm 0.00 in0.0 mm 0.00 in0.0 mm
08:25 AM 55.4°F13.0°C 48.2°F9.0°C 75% Calm Calm -- 29.89 in1012.2 mb 0.00 in0.0 mm 0.00 in0.0 mm 0.00 in0.0 mm
08:30 AM 56.5°F13.6°C 50.0°F10.0°C 75% Calm Calm -- 29.89 in1012.2 mb 0.00 in0.0 mm 0.00 in0.0 mm 0.00 in0.0 mm
08:35 AM 57.6°F14.2°C 50.0°F10.0°C 74% 1.2 mph W1.9 kmh W 6.5 mph10.5 kmh 29.89 in1012.2 mb 0.00 in0.0 mm 0.00 in0.0 mm 0.00 in0.0 mm
08:40 AM 57.9°F14.4°C 50.0°F10.0°C 73% 3.5 mph WSW5.6 kmh WSW 7.4 mph11.9 kmh 29.89 in1012.2 mb 0.00 in0.0 mm 0.00 in0.0 mm 0.00 in0.0 mm
08:45 AM 58.1°F14.5°C 50.0°F10.0°C 72% 4.5 mph WSW7.2 kmh WSW 10.5 mph16.9 kmh 29.89 in1012.2 mb 0.00 in0.0 mm 0.00 in0.0 mm 0.00 in0.0 mm
08:50 AM 58.8°F14.9°C 50.0°F10.0°C 71% 4.3 mph WSW6.9 kmh WSW 10.5 mph16.9 kmh 29.89 in1012.2 mb 0.00 in0.0 mm 0.00 in0.0 mm 0.00 in0.0 mm
08:55 AM 59.9°F15.5°C 51.8°F11.0°C 71% 4.7 mph WSW7.6 kmh WSW 9.4 mph15.1 kmh 29.89 in1012.2 mb 0.00 in0.0 mm 0.00 in0.0 mm 0.00 in0.0 mm
09:00 AM 60.8°F16.0°C 50.0°F10.0°C 69% 5.6 mph WSW9.0 kmh WSW 9.6 mph15.4 kmh 29.89 in1012.2 mb 0.00 in0.0 mm 0.00 in0.0 mm 0.00 in0.0 mm
09:05 AM 61.2°F16.2°C 51.8°F11.0°C 69% 5.4 mph W8.7 kmh W 9.6 mph15.4 kmh 29.89 in1012.2 mb 0.00 in0.0 mm 0.00 in0.0 mm 0.00 in0.0 mm
09:10 AM 60.1°F15.6°C 50.0°F10.0°C 68% 5.2 mph W8.4 kmh W 10.1 mph16.3 kmh 29.89 in1012.2 mb 0.00 in0.0 mm 0.00 in0.0 mm 0.00 in0.0 mm
09:15 AM 62.1°F16.7°C 51.8°F11.0°C 68% 5.4 mph W8.7 kmh W 10.1 mph16.3 kmh 29.89 in1012.2 mb 0.00 in0.0 mm 0.00 in0.0 mm 0.00 in0.0 mm
09:20 AM 63.3°F17.4°C 51.8°F11.0°C 66% 4.5 mph WSW7.2 kmh WSW 6.9 mph11.1 kmh 29.89 in1012.2 mb 0.00 in0.0 mm 0.00 in0.0 mm 0.00 in0.0 mm
09:25 AM 63.7°F17.6°C 51.8°F11.0°C 66% 4.2 mph SW6.8 kmh SW 9.2 mph14.8 kmh 29.89 in1012.2 mb 0.00 in0.0 mm 0.00 in0.0 mm 0.00 in0.0 mm
09:30 AM 62.8°F17.1°C 51.8°F11.0°C 65% 3.9 mph WSW6.3 kmh WSW 9.2 mph14.8 kmh 29.89 in1012.2 mb 0.00 in0.0 mm 0.00 in0.0 mm 0.00 in0.0 mm
09:35 AM 61.9°F16.6°C 50.0°F10.0°C 65% 3.7 mph SW6.0 kmh SW 8.1 mph13.0 kmh 29.89 in1012.2 mb 0.00 in0.0 mm 0.00 in0.0 mm 0.00 in0.0 mm
09:40 AM 61.0°F16.1°C 50.0°F10.0°C 65% 4.1 mph W6.6 kmh W 8.5 mph13.7 kmh 29.89 in1012.2 mb 0.00 in0.0 mm 0.00 in0.0 mm 0.00 in0.0 mm
09:45 AM 61.2°F16.2°C 50.0°F10.0°C 64% 6.7 mph W10.8 kmh W 12.3 mph19.8 kmh 29.89 in1012.2 mb 0.00 in0.0 mm 0.00 in0.0 mm 0.00 in0.0 mm
09:50 AM 61.3°F16.3°C 48.2°F9.0°C 63% 6.9 mph W11.1 kmh W 12.3 mph19.8 kmh 29.89 in1012.2 mb 0.00 in0.0 mm 0.00 in0.0 mm 0.00 in0.0 mm
09:55 AM 62.1°F16.7°C 50.0°F10.0°C 63% 6.4 mph WNW10.3 kmh WNW 11.0 mph17.7 kmh 29.92 in1013.2 mb 0.00 in0.0 mm 0.00 in0.0 mm 0.00 in0.0 mm
10:00 AM 64.4°F18.0°C 50.0°F10.0°C 61% 6.5 mph WNW10.5 kmh WNW 11.0 mph17.7 kmh 29.92 in1013.2 mb 0.00 in0.0 mm 0.00 in0.0 mm 0.00 in0.0 mm
10:05 AM 63.0°F17.2°C 50.0°F10.0°C 61% 5.9 mph W9.5 kmh W 10.1 mph16.3 kmh 29.92 in1013.2 mb 0.00 in0.0 mm 0.00 in0.0 mm 0.00 in0.0 mm
10:10 AM 61.3°F16.3°C 48.2°F9.0°C 62% 6.3 mph W10.1 kmh W 10.1 mph16.3 kmh 29.92 in1013.2 mb 0.00 in0.0 mm 0.00 in0.0 mm 0.00 in0.0 mm
10:15 AM 62.8°F17.1°C 48.2°F9.0°C 60% 6.0 mph WNW9.7 kmh WNW 10.1 mph16.3 kmh 29.92 in1013.2 mb 0.00 in0.0 mm 0.00 in0.0 mm 0.00 in0.0 mm
10:20 AM 61.9°F16.6°C 48.2°F9.0°C 61% 5.7 mph W9.2 kmh W 7.4 mph11.9 kmh 29.92 in1013.2 mb 0.00 in0.0 mm 0.00 in0.0 mm 0.00 in0.0 mm
10:25 AM 65.5°F18.6°C 50.0°F10.0°C 58% 6.5 mph WSW10.5 kmh WSW 9.4 mph15.1 kmh 29.92 in1013.2 mb 0.00 in0.0 mm 0.00 in0.0 mm 0.00 in0.0 mm
10:30 AM 65.1°F18.4°C 50.0°F10.0°C 57% 7.1 mph WSW11.4 kmh WSW 12.5 mph20.1 kmh 29.92 in1013.2 mb 0.00 in0.0 mm 0.00 in0.0 mm 0.00 in0.0 mm
10:35 AM 66.6°F19.2°C 50.0°F10.0°C 55% 7.4 mph WSW11.9 kmh WSW 12.5 mph20.1 kmh 29.92 in1013.2 mb 0.00 in0.0 mm 0.00 in0.0 mm 0.00 in0.0 mm
10:40 AM 67.6°F19.8°C 50.0°F10.0°C 54% 6.5 mph WSW10.5 kmh WSW 10.5 mph16.9 kmh 29.92 in1013.2 mb 0.00 in0.0 mm 0.00 in0.0 mm 0.00 in0.0 mm
10:45 AM 68.9°F20.5°C 51.8°F11.0°C 54% 6.5 mph WSW10.5 kmh WSW 10.5 mph16.9 kmh 29.92 in1013.2 mb 0.00 in0.0 mm 0.00 in0.0 mm 0.00 in0.0 mm
10:50 AM 66.9°F19.4°C 50.0°F10.0°C 53% 7.8 mph W12.6 kmh W 13.0 mph20.9 kmh 29.92 in1013.2 mb 0.00 in0.0 mm 0.00 in0.0 mm 0.00 in0.0 mm
10:55 AM 66.2°F19.0°C 48.2°F9.0°C 53% 8.5 mph W13.7 kmh W 13.0 mph20.9 kmh 29.92 in1013.2 mb 0.00 in0.0 mm 0.00 in0.0 mm 0.00 in0.0 mm
11:00 AM 64.9°F18.3°C 48.2°F9.0°C 54% 7.6 mph WSW12.2 kmh WSW 11.0 mph17.7 kmh 29.92 in1013.2 mb 0.00 in0.0 mm 0.00 in0.0 mm 0.00 in0.0 mm
11:05 AM 64.4°F18.0°C 48.2°F9.0°C 54% 6.4 mph WSW10.3 kmh WSW 9.6 mph15.4 kmh 29.92 in1013.2 mb 0.00 in0.0 mm 0.00 in0.0 mm 0.00 in0.0 mm
11:10 AM 66.6°F19.2°C 48.2°F9.0°C 52% 6.9 mph WSW11.1 kmh WSW 11.0 mph17.7 kmh 29.92 in1013.2 mb 0.00 in0.0 mm 0.00 in0.0 mm 0.00 in0.0 mm
11:15 AM 65.5°F18.6°C 48.2°F9.0°C 53% 8.1 mph W13.0 kmh W 11.0 mph17.7 kmh 29.92 in1013.2 mb 0.00 in0.0 mm 0.00 in0.0 mm 0.00 in0.0 mm
11:20 AM 68.4°F20.2°C 50.0°F10.0°C 52% 7.0 mph W11.3 kmh W 10.1 mph16.3 kmh 29.92 in1013.2 mb 0.00 in0.0 mm 0.00 in0.0 mm 0.00 in0.0 mm
11:25 AM 68.0°F20.0°C 50.0°F10.0°C 52% 5.7 mph WSW9.2 kmh WSW 7.8 mph12.6 kmh 29.92 in1013.2 mb 0.00 in0.0 mm 0.00 in0.0 mm 0.00 in0.0 mm
11:30 AM 67.8°F19.9°C 50.0°F10.0°C 52% 6.2 mph SW10.0 kmh SW 8.7 mph14.0 kmh 29.92 in1013.2 mb 0.00 in0.0 mm 0.00 in0.0 mm 0.00 in0.0 mm
11:35 AM 69.4°F20.8°C 51.8°F11.0°C 52% 6.5 mph WSW10.5 kmh WSW 10.1 mph16.3 kmh 29.92 in1013.2 mb 0.00 in0.0 mm 0.00 in0.0 mm 0.00 in0.0 mm
11:40 AM 71.4°F21.9°C 51.8°F11.0°C 50% 5.1 mph WSW8.2 kmh WSW 10.1 mph16.3 kmh 29.92 in1013.2 mb 0.00 in0.0 mm 0.00 in0.0 mm 0.00 in0.0 mm
11:45 AM 72.3°F22.4°C 53.6°F12.0°C 50% 4.4 mph WSW7.1 kmh WSW 8.1 mph13.0 kmh 29.92 in1013.2 mb 0.00 in0.0 mm 0.00 in0.0 mm 0.00 in0.0 mm
11:50 AM 71.4°F21.9°C 51.8°F11.0°C 50% 4.1 mph WSW6.6 kmh WSW 6.5 mph10.5 kmh 29.92 in1013.2 mb 0.00 in0.0 mm 0.00 in0.0 mm 0.00 in0.0 mm
11:55 AM 72.5°F22.5°C 53.6°F12.0°C 50% 4.0 mph SW6.4 kmh SW 5.6 mph9.0 kmh 29.92 in1013.2 mb 0.00 in0.0 mm 0.00 in0.0 mm 0.00 in0.0 mm
12:00 PM 72.0°F22.2°C 51.8°F11.0°C 49% 5.0 mph SW8.0 kmh SW 11.0 mph17.7 kmh 29.92 in1013.2 mb 0.00 in0.0 mm 0.00 in0.0 mm 0.00 in0.0 mm
12:05 PM 74.7°F23.7°C 53.6°F12.0°C 48% 4.2 mph W6.8 kmh W 11.0 mph17.7 kmh 29.92 in1013.2 mb 0.00 in0.0 mm 0.00 in0.0 mm 0.00 in0.0 mm
12:10 PM 73.9°F23.3°C 53.6°F12.0°C 48% 2.8 mph WNW4.5 kmh WNW 6.0 mph9.7 kmh 29.92 in1013.2 mb 0.00 in0.0 mm 0.00 in0.0 mm 0.00 in0.0 mm
12:15 PM 72.5°F22.5°C 53.6°F12.0°C 50% 3.3 mph NW5.3 kmh NW 7.2 mph11.6 kmh 29.92 in1013.2 mb 0.00 in0.0 mm 0.00 in0.0 mm 0.00 in0.0 mm
12:20 PM 72.5°F22.5°C 53.6°F12.0°C 49% 4.1 mph NW6.6 kmh NW 7.8 mph12.6 kmh 29.92 in1013.2 mb 0.00 in0.0 mm 0.00 in0.0 mm 0.00 in0.0 mm
12:25 PM 72.0°F22.2°C 51.8°F11.0°C 48% 5.5 mph W8.9 kmh W 11.0 mph17.7 kmh 29.92 in1013.2 mb 0.00 in0.0 mm 0.00 in0.0 mm 0.00 in0.0 mm
12:30 PM 72.1°F22.3°C 51.8°F11.0°C 49% 5.5 mph WSW8.9 kmh WSW 11.0 mph17.7 kmh 29.92 in1013.2 mb 0.00 in0.0 mm 0.00 in0.0 mm 0.00 in0.0 mm
12:35 PM 72.9°F22.7°C 53.6°F12.0°C 49% 6.3 mph WSW10.1 kmh WSW 11.2 mph18.0 kmh 29.92 in1013.2 mb 0.00 in0.0 mm 0.00 in0.0 mm 0.00 in0.0 mm
12:40 PM 73.8°F23.2°C 53.6°F12.0°C 47% 6.4 mph WSW10.3 kmh WSW 11.2 mph18.0 kmh 29.92 in1013.2 mb 0.00 in0.0 mm 0.00 in0.0 mm 0.00 in0.0 mm
12:45 PM 73.8°F23.2°C 53.6°F12.0°C 47% 4.0 mph SW6.4 kmh SW 7.6 mph12.2 kmh 29.92 in1013.2 mb 0.00 in0.0 mm 0.00 in0.0 mm 0.00 in0.0 mm
12:50 PM 73.9°F23.3°C 51.8°F11.0°C 46% 4.5 mph SW7.2 kmh SW 10.1 mph16.3 kmh 29.92 in1013.2 mb 0.00 in0.0 mm 0.00 in0.0 mm 0.00 in0.0 mm
12:55 PM 74.1°F23.4°C 53.6°F12.0°C 47% 4.8 mph WSW7.7 kmh WSW 10.1 mph16.3 kmh 29.92 in1013.2 mb 0.00 in0.0 mm 0.00 in0.0 mm 0.00 in0.0 mm
01:00 PM 73.2°F22.9°C 53.6°F12.0°C 48% 5.1 mph SW8.2 kmh SW 6.5 mph10.5 kmh 29.92 in1013.2 mb 0.00 in0.0 mm 0.00 in0.0 mm 0.00 in0.0 mm
01:05 PM 72.9°F22.7°C 51.8°F11.0°C 47% 5.0 mph SW8.0 kmh SW 6.5 mph10.5 kmh 29.92 in1013.2 mb 0.00 in0.0 mm 0.00 in0.0 mm 0.00 in0.0 mm
01:10 PM 71.1°F21.7°C 50.0°F10.0°C 47% 3.5 mph SW5.6 kmh SW 6.5 mph10.5 kmh 29.92 in1013.2 mb 0.00 in0.0 mm 0.00 in0.0 mm 0.00 in0.0 mm
01:15 PM 72.1°F22.3°C 51.8°F11.0°C 47% 3.0 mph SSW4.8 kmh SSW 4.9 mph7.9 kmh 29.92 in1013.2 mb 0.00 in0.0 mm 0.00 in0.0 mm 0.00 in0.0 mm
01:20 PM 69.6°F20.9°C 50.0°F10.0°C 48% 3.9 mph NW6.3 kmh NW 6.3 mph10.1 kmh 29.92 in1013.2 mb 0.00 in0.0 mm 0.00 in0.0 mm 0.00 in0.0 mm
01:25 PM 71.8°F22.1°C 50.0°F10.0°C 47% 5.6 mph WNW9.0 kmh WNW 9.8 mph15.8 kmh 29.92 in1013.2 mb 0.00 in0.0 mm 0.00 in0.0 mm 0.00 in0.0 mm
01:30 PM 72.5°F22.5°C 51.8°F11.0°C 46% 7.1 mph W11.4 kmh W 10.5 mph16.9 kmh 29.92 in1013.2 mb 0.00 in0.0 mm 0.00 in0.0 mm 0.00 in0.0 mm
01:35 PM 70.3°F21.3°C 50.0°F10.0°C 47% 6.6 mph W10.6 kmh W 10.5 mph16.9 kmh 29.92 in1013.2 mb 0.00 in0.0 mm 0.00 in0.0 mm 0.00 in0.0 mm
01:40 PM 67.8°F19.9°C 48.2°F9.0°C 47% 7.1 mph WNW11.4 kmh WNW 13.0 mph20.9 kmh 29.92 in1013.2 mb 0.00 in0.0 mm 0.00 in0.0 mm 0.00 in0.0 mm
01:45 PM 68.0°F20.0°C 48.2°F9.0°C 47% 7.0 mph NW11.3 kmh NW 13.0 mph20.9 kmh 29.92 in1013.2 mb 0.00 in0.0 mm 0.00 in0.0 mm 0.00 in0.0 mm
01:50 PM 67.5°F19.7°C 48.2°F9.0°C 48% 5.0 mph NW8.0 kmh NW 8.7 mph14.0 kmh 29.92 in1013.2 mb 0.00 in0.0 mm 0.00 in0.0 mm 0.00 in0.0 mm
01:55 PM 67.5°F19.7°C 48.2°F9.0°C 48% 4.7 mph NW7.6 kmh NW 8.5 mph13.7 kmh 29.92 in1013.2 mb 0.00 in0.0 mm 0.00 in0.0 mm 0.00 in0.0 mm
02:00 PM 69.1°F20.6°C 48.2°F9.0°C 48% 4.5 mph WNW7.2 kmh WNW 8.5 mph13.7 kmh 29.92 in1013.2 mb 0.00 in0.0 mm 0.00 in0.0 mm 0.00 in0.0 mm
02:05 PM 70.3°F21.3°C 50.0°F10.0°C 47% 4.1 mph W6.6 kmh W 8.5 mph13.7 kmh 29.92 in1013.2 mb 0.00 in0.0 mm 0.00 in0.0 mm 0.00 in0.0 mm
02:10 PM 70.5°F21.4°C 50.0°F10.0°C 47% 8.5 mph W13.7 kmh W 17.0 mph27.4 kmh 29.92 in1013.2 mb 0.00 in0.0 mm 0.00 in0.0 mm 0.00 in0.0 mm
02:15 PM 69.6°F20.9°C 48.2°F9.0°C 46% 10.8 mph W17.4 kmh W 17.0 mph27.4 kmh 29.92 in1013.2 mb 0.00 in0.0 mm 0.00 in0.0 mm 0.00 in0.0 mm
02:20 PM 69.1°F20.6°C 48.2°F9.0°C 45% 9.4 mph WSW15.1 kmh WSW 16.8 mph27.0 kmh 29.92 in1013.2 mb 0.00 in0.0 mm 0.00 in0.0 mm 0.00 in0.0 mm
02:25 PM 69.4°F20.8°C 48.2°F9.0°C 46% 9.2 mph W14.8 kmh W 16.8 mph27.0 kmh 29.95 in1014.2 mb 0.00 in0.0 mm 0.00 in0.0 mm 0.00 in0.0 mm
02:30 PM 69.1°F20.6°C 48.2°F9.0°C 45% 8.7 mph WSW14.0 kmh WSW 13.0 mph20.9 kmh 29.95 in1014.2 mb 0.00 in0.0 mm 0.00 in0.0 mm 0.00 in0.0 mm
02:35 PM 69.3°F20.7°C 48.2°F9.0°C 45% 9.6 mph WSW15.4 kmh WSW 12.8 mph20.6 kmh 29.95 in1014.2 mb 0.00 in0.0 mm 0.00 in0.0 mm 0.00 in0.0 mm
02:40 PM 69.8°F21.0°C 48.2°F9.0°C 45% 7.7 mph WSW12.4 kmh WSW 12.8 mph20.6 kmh 29.95 in1014.2 mb 0.00 in0.0 mm 0.00 in0.0 mm 0.00 in0.0 mm
02:45 PM 68.9°F20.5°C 48.2°F9.0°C 45% 5.1 mph WSW8.2 kmh WSW 8.1 mph13.0 kmh 29.95 in1014.2 mb 0.00 in0.0 mm 0.00 in0.0 mm 0.00 in0.0 mm
02:50 PM 66.7°F19.3°C 44.6°F7.0°C 45% 7.3 mph WSW11.7 kmh WSW 12.5 mph20.1 kmh 29.95 in1014.2 mb 0.00 in0.0 mm 0.00 in0.0 mm 0.00 in0.0 mm
02:55 PM 65.8°F18.8°C 44.6°F7.0°C 46% 9.2 mph W14.8 kmh W 12.5 mph20.1 kmh 29.95 in1014.2 mb 0.00 in0.0 mm 0.00 in0.0 mm 0.00 in0.0 mm
03:00 PM 65.5°F18.6°C 44.6°F7.0°C 46% 8.4 mph W13.5 kmh W 12.5 mph20.1 kmh 29.95 in1014.2 mb 0.00 in0.0 mm 0.00 in0.0 mm 0.00 in0.0 mm
03:05 PM 64.9°F18.3°C 44.6°F7.0°C 47% 8.4 mph W13.5 kmh W 13.4 mph21.6 kmh 29.95 in1014.2 mb 0.00 in0.0 mm 0.00 in0.0 mm 0.00 in0.0 mm
03:10 PM 62.4°F16.9°C 42.8°F6.0°C 49% 8.1 mph W13.0 kmh W 13.4 mph21.6 kmh 29.95 in1014.2 mb 0.00 in0.0 mm 0.00 in0.0 mm 0.00 in0.0 mm
03:15 PM 61.5°F16.4°C 42.8°F6.0°C 50% 6.2 mph WNW10.0 kmh WNW 12.3 mph19.8 kmh 29.95 in1014.2 mb 0.00 in0.0 mm 0.00 in0.0 mm 0.00 in0.0 mm
03:20 PM 60.3°F15.7°C 42.8°F6.0°C 51% 5.6 mph W9.0 kmh W 10.3 mph16.6 kmh 29.95 in1014.2 mb 0.00 in0.0 mm 0.00 in0.0 mm 0.00 in0.0 mm
03:25 PM 59.5°F15.3°C 42.8°F6.0°C 52% 6.5 mph WSW10.5 kmh WSW 12.3 mph19.8 kmh 29.98 in1015.2 mb 0.00 in0.0 mm 0.00 in0.0 mm 0.00 in0.0 mm
03:30 PM 59.7°F15.4°C 42.8°F6.0°C 54% 4.2 mph WSW6.8 kmh WSW 12.3 mph19.8 kmh 29.98 in1015.2 mb 0.06 in1.5 mm 0.72 in18.3 mm 0.06 in1.5 mm
03:35 PM 59.7°F15.4°C 44.6°F7.0°C 56% 2.3 mph SW3.7 kmh SW 4.3 mph6.9 kmh 29.98 in1015.2 mb 0.06 in1.5 mm 0.00 in0.0 mm 0.06 in1.5 mm
03:40 PM 59.9°F15.5°C 44.6°F7.0°C 56% 3.1 mph SW5.0 kmh SW 5.6 mph9.0 kmh 29.98 in1015.2 mb 0.06 in1.5 mm 0.00 in0.0 mm 0.06 in1.5 mm
03:45 PM 60.1°F15.6°C 44.6°F7.0°C 56% 3.1 mph SW5.0 kmh SW 5.6 mph9.0 kmh 29.98 in1015.2 mb 0.06 in1.5 mm 0.00 in0.0 mm 0.06 in1.5 mm
03:50 PM 60.6°F15.9°C 46.4°F8.0°C 57% 2.2 mph WSW3.5 kmh WSW 4.3 mph6.9 kmh 29.98 in1015.2 mb 0.06 in1.5 mm 0.00 in0.0 mm 0.06 in1.5 mm
03:55 PM 61.2°F16.2°C 46.4°F8.0°C 57% 2.2 mph WNW3.5 kmh WNW 4.3 mph6.9 kmh 29.98 in1015.2 mb 0.06 in1.5 mm 0.00 in0.0 mm 0.06 in1.5 mm
04:00 PM 61.0°F16.1°C 46.4°F8.0°C 57% 1.8 mph NW2.9 kmh NW 3.6 mph5.8 kmh 29.98 in1015.2 mb 0.06 in1.5 mm 0.00 in0.0 mm 0.06 in1.5 mm
04:05 PM 60.6°F15.9°C 46.4°F8.0°C 58% 1.0 mph NNE1.6 kmh NNE 2.7 mph4.3 kmh 29.98 in1015.2 mb 0.06 in1.5 mm 0.00 in0.0 mm 0.06 in1.5 mm
04:10 PM 61.0°F16.1°C 46.4°F8.0°C 59% 0.8 mph NNW1.3 kmh NNW 2.0 mph3.2 kmh 29.98 in1015.2 mb 0.06 in1.5 mm 0.00 in0.0 mm 0.06 in1.5 mm
04:15 PM 61.2°F16.2°C 48.2°F9.0°C 60% 0.7 mph NW1.1 kmh NW 1.6 mph2.6 kmh 29.98 in1015.2 mb 0.06 in1.5 mm 0.00 in0.0 mm 0.06 in1.5 mm
04:20 PM 61.0°F16.1°C 46.4°F8.0°C 59% 0.9 mph N1.4 kmh N 2.9 mph4.7 kmh 29.98 in1015.2 mb 0.06 in1.5 mm 0.00 in0.0 mm 0.06 in1.5 mm
04:25 PM 60.8°F16.0°C 46.4°F8.0°C 59% 2.0 mph NNE3.2 kmh NNE 3.6 mph5.8 kmh 29.98 in1015.2 mb 0.06 in1.5 mm 0.00 in0.0 mm 0.06 in1.5 mm
04:30 PM 61.0°F16.1°C 46.4°F8.0°C 59% 2.2 mph N3.5 kmh N 3.6 mph5.8 kmh 29.98 in1015.2 mb 0.00 in0.0 mm 0.00 in0.0 mm 0.06 in1.5 mm
04:35 PM 61.0°F16.1°C 46.4°F8.0°C 59% 1.1 mph NW1.8 kmh NW 3.6 mph5.8 kmh 29.98 in1015.2 mb 0.00 in0.0 mm 0.00 in0.0 mm 0.06 in1.5 mm
04:40 PM 60.6°F15.9°C 46.4°F8.0°C 59% 1.8 mph W2.9 kmh W 3.8 mph6.1 kmh 29.98 in1015.2 mb 0.00 in0.0 mm 0.00 in0.0 mm 0.06 in1.5 mm
04:45 PM 60.8°F16.0°C 46.4°F8.0°C 59% 2.1 mph W3.4 kmh W 3.8 mph6.1 kmh 29.98 in1015.2 mb 0.00 in0.0 mm 0.00 in0.0 mm 0.06 in1.5 mm
04:50 PM 61.0°F16.1°C 46.4°F8.0°C 58% 2.0 mph SSW3.2 kmh SSW 5.8 mph9.3 kmh 29.98 in1015.2 mb 0.00 in0.0 mm 0.00 in0.0 mm 0.06 in1.5 mm
04:55 PM 60.8°F16.0°C 46.4°F8.0°C 59% 3.3 mph S5.3 kmh S 6.0 mph9.7 kmh 29.98 in1015.2 mb 0.00 in0.0 mm 0.00 in0.0 mm 0.06 in1.5 mm
05:00 PM 60.4°F15.8°C 46.4°F8.0°C 58% 3.3 mph SW5.3 kmh SW 6.0 mph9.7 kmh 29.98 in1015.2 mb 0.00 in0.0 mm 0.00 in0.0 mm 0.06 in1.5 mm
05:05 PM 60.6°F15.9°C 46.4°F8.0°C 59% 3.5 mph W5.6 kmh W 11.0 mph17.7 kmh 29.98 in1015.2 mb 0.00 in0.0 mm 0.00 in0.0 mm 0.06 in1.5 mm
05:10 PM 60.6°F15.9°C 46.4°F8.0°C 57% 4.8 mph W7.7 kmh W 11.0 mph17.7 kmh 29.98 in1015.2 mb 0.00 in0.0 mm 0.00 in0.0 mm 0.06 in1.5 mm
05:15 PM 60.4°F15.8°C 44.6°F7.0°C 57% 5.3 mph WNW8.5 kmh WNW 11.0 mph17.7 kmh 29.98 in1015.2 mb 0.00 in0.0 mm 0.00 in0.0 mm 0.06 in1.5 mm
05:20 PM 60.1°F15.6°C 44.6°F7.0°C 57% 4.4 mph W7.1 kmh W 8.7 mph14.0 kmh 29.98 in1015.2 mb 0.00 in0.0 mm 0.00 in0.0 mm 0.06 in1.5 mm
05:25 PM 60.1°F15.6°C 44.6°F7.0°C 57% 4.5 mph WSW7.2 kmh WSW 8.7 mph14.0 kmh 29.98 in1015.2 mb 0.00 in0.0 mm 0.00 in0.0 mm 0.06 in1.5 mm
05:30 PM 59.9°F15.5°C 44.6°F7.0°C 56% 4.3 mph WSW6.9 kmh WSW 8.7 mph14.0 kmh 29.98 in1015.2 mb 0.00 in0.0 mm 0.00 in0.0 mm 0.06 in1.5 mm
05:35 PM 59.7°F15.4°C 44.6°F7.0°C 56% 3.9 mph W6.3 kmh W 5.8 mph9.3 kmh 29.98 in1015.2 mb 0.00 in0.0 mm 0.00 in0.0 mm 0.06 in1.5 mm
05:40 PM 59.5°F15.3°C 44.6°F7.0°C 56% 3.7 mph W6.0 kmh W 7.6 mph12.2 kmh 30.01 in1016.3 mb 0.00 in0.0 mm 0.00 in0.0 mm 0.06 in1.5 mm
05:45 PM 59.2°F15.1°C 42.8°F6.0°C 56% 4.5 mph WNW7.2 kmh WNW 7.6 mph12.2 kmh 30.01 in1016.3 mb 0.00 in0.0 mm 0.00 in0.0 mm 0.06 in1.5 mm
05:50 PM 59.0°F15.0°C 42.8°F6.0°C 56% 4.8 mph WNW7.7 kmh WNW 6.5 mph10.5 kmh 30.01 in1016.3 mb 0.00 in0.0 mm 0.00 in0.0 mm 0.06 in1.5 mm
05:55 PM 58.8°F14.9°C 42.8°F6.0°C 56% 4.5 mph W7.2 kmh W 6.3 mph10.1 kmh 30.01 in1016.3 mb 0.00 in0.0 mm 0.00 in0.0 mm 0.06 in1.5 mm
06:00 PM 58.6°F14.8°C 42.8°F6.0°C 56% 4.0 mph WNW6.4 kmh WNW 5.8 mph9.3 kmh 30.01 in1016.3 mb 0.00 in0.0 mm 0.00 in0.0 mm 0.06 in1.5 mm
06:05 PM 58.5°F14.7°C 42.8°F6.0°C 56% 3.4 mph W5.5 kmh W 5.4 mph8.7 kmh 30.01 in1016.3 mb 0.00 in0.0 mm 0.00 in0.0 mm 0.06 in1.5 mm
06:10 PM 58.3°F14.6°C 42.8°F6.0°C 57% 2.9 mph WSW4.7 kmh WSW 4.0 mph6.4 kmh 30.01 in1016.3 mb 0.00 in0.0 mm 0.00 in0.0 mm 0.06 in1.5 mm
06:15 PM 58.1°F14.5°C 42.8°F6.0°C 57% 2.6 mph W4.2 kmh W 3.8 mph6.1 kmh 30.01 in1016.3 mb 0.00 in0.0 mm 0.00 in0.0 mm 0.06 in1.5 mm
06:20 PM 57.9°F14.4°C 42.8°F6.0°C 57% 3.4 mph WSW5.5 kmh WSW 7.2 mph11.6 kmh 30.01 in1016.3 mb 0.00 in0.0 mm 0.00 in0.0 mm 0.06 in1.5 mm
06:25 PM 57.9°F14.4°C 42.8°F6.0°C 57% 4.3 mph WSW6.9 kmh WSW 7.4 mph11.9 kmh 30.01 in1016.3 mb 0.00 in0.0 mm 0.00 in0.0 mm 0.06 in1.5 mm
06:30 PM 57.7°F14.3°C 42.8°F6.0°C 57% 4.0 mph W6.4 kmh W 7.4 mph11.9 kmh 30.01 in1016.3 mb 0.00 in0.0 mm 0.00 in0.0 mm 0.06 in1.5 mm
06:35 PM 57.6°F14.2°C 42.8°F6.0°C 58% 3.2 mph WSW5.1 kmh WSW 4.0 mph6.4 kmh 30.01 in1016.3 mb 0.00 in0.0 mm 0.00 in0.0 mm 0.06 in1.5 mm
06:40 PM 57.2°F14.0°C 42.8°F6.0°C 58% 2.6 mph WSW4.2 kmh WSW 4.3 mph6.9 kmh 30.01 in1016.3 mb 0.00 in0.0 mm 0.00 in0.0 mm 0.06 in1.5 mm
06:45 PM 57.0°F13.9°C 42.8°F6.0°C 58% 2.9 mph WSW4.7 kmh WSW 4.3 mph6.9 kmh 30.01 in1016.3 mb 0.00 in0.0 mm 0.00 in0.0 mm 0.06 in1.5 mm
06:50 PM 56.8°F13.8°C 42.8°F6.0°C 58% 3.7 mph WSW6.0 kmh WSW 4.9 mph7.9 kmh 30.01 in1016.3 mb 0.00 in0.0 mm 0.00 in0.0 mm 0.06 in1.5 mm
06:55 PM 56.7°F13.7°C 42.8°F6.0°C 58% 3.5 mph WSW5.6 kmh WSW 4.9 mph7.9 kmh 30.04 in1017.3 mb 0.00 in0.0 mm 0.00 in0.0 mm 0.06 in1.5 mm
07:00 PM 56.1°F13.4°C 42.8°F6.0°C 59% 2.9 mph W4.7 kmh W 4.0 mph6.4 kmh 30.04 in1017.3 mb 0.00 in0.0 mm 0.00 in0.0 mm 0.06 in1.5 mm
07:05 PM 55.8°F13.2°C 42.8°F6.0°C 60% 2.4 mph W3.9 kmh W 4.0 mph6.4 kmh 30.04 in1017.3 mb 0.00 in0.0 mm 0.00 in0.0 mm 0.06 in1.5 mm
07:10 PM 55.6°F13.1°C 42.8°F6.0°C 60% 2.1 mph WNW3.4 kmh WNW 3.1 mph5.0 kmh 30.04 in1017.3 mb 0.00 in0.0 mm 0.00 in0.0 mm 0.06 in1.5 mm
07:15 PM 55.4°F13.0°C 42.8°F6.0°C 60% 2.7 mph WNW4.3 kmh WNW 4.3 mph6.9 kmh 30.04 in1017.3 mb 0.00 in0.0 mm 0.00 in0.0 mm 0.06 in1.5 mm
07:20 PM 55.2°F12.9°C 42.8°F6.0°C 59% 3.5 mph WSW5.6 kmh WSW 6.0 mph9.7 kmh 30.04 in1017.3 mb 0.00 in0.0 mm 0.00 in0.0 mm 0.06 in1.5 mm
07:25 PM 55.0°F12.8°C 42.8°F6.0°C 60% 3.6 mph WSW5.8 kmh WSW 6.0 mph9.7 kmh 30.04 in1017.3 mb 0.00 in0.0 mm 0.00 in0.0 mm 0.06 in1.5 mm
07:30 PM 54.9°F12.7°C 42.8°F6.0°C 60% 3.6 mph WSW5.8 kmh WSW 5.8 mph9.3 kmh 30.04 in1017.3 mb 0.00 in0.0 mm 0.00 in0.0 mm 0.06 in1.5 mm
07:35 PM 54.7°F12.6°C 42.8°F6.0°C 60% 3.9 mph WSW6.3 kmh WSW 5.8 mph9.3 kmh 30.04 in1017.3 mb 0.00 in0.0 mm 0.00 in0.0 mm 0.06 in1.5 mm
07:40 PM 54.3°F12.4°C 41.0°F5.0°C 61% 3.4 mph WSW5.5 kmh WSW 5.6 mph9.0 kmh 30.04 in1017.3 mb 0.00 in0.0 mm 0.00 in0.0 mm 0.06 in1.5 mm
07:45 PM 54.1°F12.3°C 41.0°F5.0°C 60% 4.0 mph WSW6.4 kmh WSW 5.8 mph9.3 kmh 30.04 in1017.3 mb 0.00 in0.0 mm 0.00 in0.0 mm 0.06 in1.5 mm
07:50 PM 54.1°F12.3°C 41.0°F5.0°C 60% 4.2 mph WSW6.8 kmh WSW 5.8 mph9.3 kmh 30.04 in1017.3 mb 0.00 in0.0 mm 0.00 in0.0 mm 0.06 in1.5 mm
07:55 PM 53.8°F12.1°C 41.0°F5.0°C 61% 2.2 mph W3.5 kmh W 4.7 mph7.6 kmh 30.04 in1017.3 mb 0.00 in0.0 mm 0.00 in0.0 mm 0.06 in1.5 mm
08:00 PM 53.4°F11.9°C 41.0°F5.0°C 62% 1.1 mph NW1.8 kmh NW 2.2 mph3.5 kmh 30.04 in1017.3 mb 0.00 in0.0 mm 0.00 in0.0 mm 0.06 in1.5 mm
08:05 PM 53.2°F11.8°C 41.0°F5.0°C 62% 0.5 mph NW0.8 kmh NW 1.6 mph2.6 kmh 30.04 in1017.3 mb 0.00 in0.0 mm 0.00 in0.0 mm 0.06 in1.5 mm
08:10 PM 53.1°F11.7°C 41.0°F5.0°C 63% Calm Calm -- 30.04 in1017.3 mb 0.00 in0.0 mm 0.00 in0.0 mm 0.06 in1.5 mm
08:15 PM 53.1°F11.7°C 41.0°F5.0°C 63% Calm Calm -- 30.04 in1017.3 mb 0.00 in0.0 mm 0.00 in0.0 mm 0.06 in1.5 mm
08:20 PM 52.9°F11.6°C 41.0°F5.0°C 63% Calm Calm -- 30.04 in1017.3 mb 0.00 in0.0 mm 0.00 in0.0 mm 0.06 in1.5 mm
08:25 PM 52.7°F11.5°C 41.0°F5.0°C 64% Calm Calm -- 30.07 in1018.3 mb 0.00 in0.0 mm 0.00 in0.0 mm 0.06 in1.5 mm
08:30 PM 52.7°F11.5°C 41.0°F5.0°C 64% Calm Calm -- 30.07 in1018.3 mb 0.00 in0.0 mm 0.00 in0.0 mm 0.06 in1.5 mm
08:35 PM 52.5°F11.4°C 41.0°F5.0°C 64% 0.1 mph WSW0.2 kmh WSW 1.6 mph2.6 kmh 30.07 in1018.3 mb 0.00 in0.0 mm 0.00 in0.0 mm 0.06 in1.5 mm
08:40 PM 52.5°F11.4°C 41.0°F5.0°C 64% 0.1 mph WSW0.2 kmh WSW 1.6 mph2.6 kmh 30.07 in1018.3 mb 0.00 in0.0 mm 0.00 in0.0 mm 0.06 in1.5 mm
08:45 PM 52.2°F11.2°C 41.0°F5.0°C 64% 0.1 mph WSW0.2 kmh WSW 1.6 mph2.6 kmh 30.07 in1018.3 mb 0.00 in0.0 mm 0.00 in0.0 mm 0.06 in1.5 mm
08:50 PM 52.2°F11.2°C 41.0°F5.0°C 64% Calm Calm -- 30.07 in1018.3 mb 0.00 in0.0 mm 0.00 in0.0 mm 0.06 in1.5 mm
08:55 PM 52.0°F11.1°C 41.0°F5.0°C 65% Calm Calm -- 30.07 in1018.3 mb 0.00 in0.0 mm 0.00 in0.0 mm 0.06 in1.5 mm
09:00 PM 51.8°F11.0°C 41.0°F5.0°C 65% Calm Calm -- 30.07 in1018.3 mb 0.00 in0.0 mm 0.00 in0.0 mm 0.06 in1.5 mm
09:05 PM 51.6°F10.9°C 41.0°F5.0°C 65% 0.1 mph WSW0.2 kmh WSW 0.9 mph1.4 kmh 30.07 in1018.3 mb 0.00 in0.0 mm 0.00 in0.0 mm 0.06 in1.5 mm
09:10 PM 51.4°F10.8°C 41.0°F5.0°C 65% 0.4 mph WSW0.6 kmh WSW 1.3 mph2.1 kmh 30.07 in1018.3 mb 0.00 in0.0 mm 0.00 in0.0 mm 0.06 in1.5 mm
09:15 PM 51.1°F10.6°C 41.0°F5.0°C 66% 0.6 mph WSW1.0 kmh WSW 1.3 mph2.1 kmh 30.07 in1018.3 mb 0.00 in0.0 mm 0.00 in0.0 mm 0.06 in1.5 mm
09:20 PM 50.9°F10.5°C 41.0°F5.0°C 66% 0.4 mph W0.6 kmh W 1.3 mph2.1 kmh 30.07 in1018.3 mb 0.00 in0.0 mm 0.00 in0.0 mm 0.06 in1.5 mm
09:25 PM 50.9°F10.5°C 41.0°F5.0°C 66% 0.1 mph NNW0.2 kmh NNW 0.9 mph1.4 kmh 30.07 in1018.3 mb 0.00 in0.0 mm 0.00 in0.0 mm 0.06 in1.5 mm
09:30 PM 50.7°F10.4°C 39.2°F4.0°C 66% 0.3 mph ENE0.5 kmh ENE 2.2 mph3.5 kmh 30.07 in1018.3 mb 0.00 in0.0 mm 0.00 in0.0 mm 0.06 in1.5 mm
09:35 PM 50.4°F10.2°C 39.2°F4.0°C 66% 0.3 mph ENE0.5 kmh ENE 2.2 mph3.5 kmh 30.07 in1018.3 mb 0.00 in0.0 mm 0.00 in0.0 mm 0.06 in1.5 mm
09:40 PM 50.4°F10.2°C 39.2°F4.0°C 66% 0.1 mph NE0.2 kmh NE 0.9 mph1.4 kmh 30.07 in1018.3 mb 0.00 in0.0 mm 0.00 in0.0 mm 0.06 in1.5 mm
09:45 PM 50.0°F10.0°C 39.2°F4.0°C 67% Calm Calm -- 30.07 in1018.3 mb 0.00 in0.0 mm 0.00 in0.0 mm 0.06 in1.5 mm
09:50 PM 50.0°F10.0°C 39.2°F4.0°C 67% 0.1 mph NE0.2 kmh NE 1.1 mph1.8 kmh 30.07 in1018.3 mb 0.00 in0.0 mm 0.00 in0.0 mm 0.06 in1.5 mm
09:55 PM 49.8°F9.9°C 39.2°F4.0°C 67% 0.1 mph NE0.2 kmh NE 1.1 mph1.8 kmh 30.07 in1018.3 mb 0.00 in0.0 mm 0.00 in0.0 mm 0.06 in1.5 mm
10:00 PM 49.6°F9.8°C 39.2°F4.0°C 67% 0.1 mph SSW0.2 kmh SSW 1.6 mph2.6 kmh 30.07 in1018.3 mb 0.00 in0.0 mm 0.00 in0.0 mm 0.06 in1.5 mm
10:05 PM 49.6°F9.8°C 39.2°F4.0°C 67% 0.2 mph SSW0.3 kmh SSW 1.6 mph2.6 kmh 30.07 in1018.3 mb 0.00 in0.0 mm 0.00 in0.0 mm 0.06 in1.5 mm
10:10 PM 49.8°F9.9°C 39.2°F4.0°C 67% 0.2 mph SSW0.3 kmh SSW 1.6 mph2.6 kmh 30.07 in1018.3 mb 0.00 in0.0 mm 0.00 in0.0 mm 0.06 in1.5 mm
10:15 PM 49.6°F9.8°C 39.2°F4.0°C 68% 0.5 mph NE0.8 kmh NE 2.7 mph4.3 kmh 30.07 in1018.3 mb 0.00 in0.0 mm 0.00 in0.0 mm 0.06 in1.5 mm
10:20 PM 49.6°F9.8°C 39.2°F4.0°C 67% 0.9 mph NE1.4 kmh NE 2.7 mph4.3 kmh 30.07 in1018.3 mb 0.00 in0.0 mm 0.00 in0.0 mm 0.06 in1.5 mm
10:25 PM 49.6°F9.8°C 39.2°F4.0°C 68% 0.5 mph E0.8 kmh E 2.7 mph4.3 kmh 30.07 in1018.3 mb 0.00 in0.0 mm 0.00 in0.0 mm 0.06 in1.5 mm
10:30 PM 49.6°F9.8°C 39.2°F4.0°C 68% 0.1 mph E0.2 kmh E 1.1 mph1.8 kmh 30.07 in1018.3 mb 0.00 in0.0 mm 0.00 in0.0 mm 0.06 in1.5 mm
10:35 PM 49.6°F9.8°C 39.2°F4.0°C 68% Calm Calm -- 30.07 in1018.3 mb 0.00 in0.0 mm 0.00 in0.0 mm 0.06 in1.5 mm
10:40 PM 49.6°F9.8°C 39.2°F4.0°C 68% 0.5 mph NNE0.8 kmh NNE 1.3 mph2.1 kmh 30.07 in1018.3 mb 0.00 in0.0 mm 0.00 in0.0 mm 0.06 in1.5 mm
10:45 PM 49.6°F9.8°C 39.2°F4.0°C 68% 0.5 mph NNE0.8 kmh NNE 1.3 mph2.1 kmh 30.07 in1018.3 mb 0.00 in0.0 mm 0.00 in0.0 mm 0.06 in1.5 mm
10:50 PM 49.6°F9.8°C 39.2°F4.0°C 68% 0.4 mph NNE0.6 kmh NNE 1.3 mph2.1 kmh 30.07 in1018.3 mb 0.00 in0.0 mm 0.00 in0.0 mm 0.06 in1.5 mm
10:55 PM 49.8°F9.9°C 41.0°F5.0°C 69% 0.7 mph ENE1.1 kmh ENE 2.0 mph3.2 kmh 30.07 in1018.3 mb 0.00 in0.0 mm 0.00 in0.0 mm 0.06 in1.5 mm
11:00 PM 49.8°F9.9°C 41.0°F5.0°C 69% 0.3 mph ESE0.5 kmh ESE 2.0 mph3.2 kmh 30.07 in1018.3 mb 0.00 in0.0 mm 0.00 in0.0 mm 0.06 in1.5 mm
11:05 PM 49.6°F9.8°C 39.2°F4.0°C 69% Calm Calm -- 30.07 in1018.3 mb 0.00 in0.0 mm 0.00 in0.0 mm 0.06 in1.5 mm
11:10 PM 49.8°F9.9°C 41.0°F5.0°C 69% Calm Calm -- 30.07 in1018.3 mb 0.00 in0.0 mm 0.00 in0.0 mm 0.06 in1.5 mm
11:15 PM 49.8°F9.9°C 41.0°F5.0°C 69% Calm Calm -- 30.07 in1018.3 mb 0.00 in0.0 mm 0.00 in0.0 mm 0.06 in1.5 mm
11:20 PM 50.0°F10.0°C 41.0°F5.0°C 69% Calm Calm -- 30.07 in1018.3 mb 0.00 in0.0 mm 0.00 in0.0 mm 0.06 in1.5 mm
11:25 PM 50.0°F10.0°C 41.0°F5.0°C 70% Calm Calm -- 30.07 in1018.3 mb 0.00 in0.0 mm 0.00 in0.0 mm 0.06 in1.5 mm
11:30 PM 50.0°F10.0°C 41.0°F5.0°C 70% Calm Calm -- 30.07 in1018.3 mb 0.00 in0.0 mm 0.00 in0.0 mm 0.06 in1.5 mm
11:35 PM 50.0°F10.0°C 41.0°F5.0°C 70% Calm Calm -- 30.07 in1018.3 mb 0.00 in0.0 mm 0.00 in0.0 mm 0.06 in1.5 mm
11:40 PM 50.2°F10.1°C 41.0°F5.0°C 70% Calm Calm -- 30.07 in1018.3 mb 0.00 in0.0 mm 0.00 in0.0 mm 0.06 in1.5 mm
11:45 PM 50.4°F10.2°C 41.0°F5.0°C 70% Calm Calm -- 30.07 in1018.3 mb 0.00 in0.0 mm 0.00 in0.0 mm 0.06 in1.5 mm
11:50 PM 50.2°F10.1°C 41.0°F5.0°C 70% Calm Calm -- 30.07 in1018.3 mb 0.00 in0.0 mm 0.00 in0.0 mm 0.06 in1.5 mm
11:55 PM 50.2°F10.1°C 41.0°F5.0°C 70% Calm Calm -- 30.09 in1019.0 mb 0.00 in0.0 mm 0.00 in0.0 mm 0.06 in1.5 mm